Time;durP1;ratioP1;P1;durP2;ratioP2;P2;SDS_P1;SDS_P2;PMS_P1;PMS_P2;Temp;Humidity;BMP_temperature;BMP_pressure;BME280_temperature;BME280_humidity;BME280_pressure;Samples;Min_cycle;Max_cycle;Signal;HPM_P1;HPM_P2
2023/12/20 01:51:27;;;;;;;14.97;1.50;;;2.20;99.90;;;;;;1967040;71;25136;-93
2023/12/20 01:55:13;;;;;;;19.47;1.70;;;2.30;99.90;;;;;;1963066;72;25226;-93
2023/12/20 01:58:59;;;;;;;15.13;1.57;;;2.30;99.90;;;;;;1960077;71;26173;-91
2023/12/20 02:33:58;;;;;;;8.20;1.03;;;2.40;99.90;;;;;;1963056;72;27158;-92
2023/12/20 04:07:27;;;;;;;11.13;1.30;;;2.90;99.90;;;;;;1963288;72;28199;-91
2023/12/20 04:14:28;;;;;;;20.47;2.00;;;3.20;99.90;;;;;;2053921;69;25743;-93
2023/12/20 04:17:58;;;;;;;21.87;2.27;;;3.20;99.90;;;;;;2048327;69;25209;-91
2023/12/20 04:21:27;;;;;;;13.47;1.80;;;3.20;99.90;;;;;;1966453;71;25260;-92
2023/12/20 04:24:47;;;;;;;16.30;1.80;;;3.20;99.90;;;;;;1936240;72;25230;-94
2023/12/20 04:27:46;;;;;;;13.57;1.63;;;3.20;99.90;;;;;;2054885;69;25300;-92
2023/12/20 04:34:59;;;;;;;22.47;1.97;;;3.20;99.90;;;;;;2044136;69;25259;-92
2023/12/20 04:38:22;;;;;;;23.63;1.90;;;3.20;99.90;;;;;;2043798;69;25285;-92
2023/12/20 04:41:29;;;;;;;13.60;2.03;;;3.20;99.90;;;;;;2038144;69;25259;-92
2023/12/20 04:47:52;;;;;;;22.23;2.20;;;3.20;99.90;;;;;;2015568;70;25226;-92
2023/12/20 04:54:07;;;;;;;28.20;2.00;;;3.40;99.90;;;;;;2020370;70;25190;-92
2023/12/20 05:17:29;;;;;;;27.87;2.70;;;3.60;99.90;;;;;;1942493;72;28218;-92
2023/12/20 05:20:23;;;;;;;19.60;2.30;;;3.60;99.90;;;;;;1931568;73;25249;-92
2023/12/20 05:23:21;;;;;;;23.73;2.33;;;3.50;99.90;;;;;;1930367;73;25285;-92
2023/12/20 05:26:23;;;;;;;21.83;2.07;;;3.50;99.90;;;;;;1870112;75;25292;-92
2023/12/20 08:49:20;;;;;;;11.73;1.23;;;3.20;99.90;;;;;;1805311;78;25384;-93
2023/12/20 09:08:34;;;;;;;6.20;1.17;;;3.30;99.90;;;;;;1899404;74;26945;-92
2023/12/20 11:02:19;;;;;;;5.10;1.20;;;4.00;99.90;;;;;;2051205;69;25185;-92
2023/12/20 16:32:21;;;;;;;1.20;0.70;;;0.80;99.90;;;;;;1988754;71;25709;-93
2023/12/20 17:01:55;;;;;;;0.90;0.90;;;0.50;99.90;;;;;;1936716;73;31558;-93
2023/12/20 17:20:40;;;;;;;1.60;1.50;;;0.30;99.90;;;;;;1896400;73;25873;-92
2023/12/20 18:20:44;;;;;;;0.80;0.80;;;0.20;99.90;;;;;;1927276;74;27387;-91
2023/12/20 18:24:14;;;;;;;0.90;0.80;;;0.20;99.90;;;;;;1913893;73;25279;-91
2023/12/20 18:34:14;;;;;;;2.27;0.73;;;0.10;99.90;;;;;;1934747;73;25273;-91
2023/12/20 18:40:27;;;;;;;1.13;1.03;;;0.00;99.90;;;;;;2000525;70;25606;-92
2023/12/20 18:43:55;;;;;;;0.83;0.83;;;0.00;99.90;;;;;;1984647;70;25193;-92
2023/12/20 18:47:02;;;;;;;0.80;0.80;;;0.00;99.90;;;;;;1980108;72;25141;-92
2023/12/20 18:49:57;;;;;;;1.43;1.00;;;-0.10;99.90;;;;;;1942950;72;25862;-91
2023/12/20 18:52:49;;;;;;;1.47;0.70;;;-0.20;99.90;;;;;;1983994;70;25158;-91
2023/12/20 18:55:49;;;;;;;0.70;0.70;;;-0.20;99.90;;;;;;1958775;72;25793;-92
2023/12/20 18:58:46;;;;;;;3.77;1.30;;;-0.30;99.90;;;;;;1986305;70;25246;-92
2023/12/20 19:01:40;;;;;;;4.07;2.27;;;-0.30;99.90;;;;;;1922754;72;25286;-92
2023/12/20 19:04:32;;;;;;;2.07;1.73;;;-0.30;99.90;;;;;;1993436;70;25256;-91
2023/12/20 19:07:39;;;;;;;2.67;1.60;;;-0.30;99.90;;;;;;1989811;71;25257;-92
2023/12/20 19:10:34;;;;;;;1.67;1.57;;;-0.20;99.90;;;;;;1993968;71;25213;-92
2023/12/20 19:16:12;;;;;;;3.93;1.53;;;-0.30;99.90;;;;;;1943274;72;29392;-92
2023/12/20 19:19:07;;;;;;;2.30;1.30;;;-0.30;99.90;;;;;;1897191;75;25290;-92
2023/12/20 19:22:01;;;;;;;3.03;1.50;;;-0.30;99.90;;;;;;1889793;75;25235;-92
2023/12/20 19:27:48;;;;;;;1.40;1.10;;;-0.20;99.90;;;;;;1954557;72;27783;-92
2023/12/20 19:30:40;;;;;;;2.90;1.93;;;-0.20;99.90;;;;;;1923413;73;25648;-91
2023/12/20 19:33:50;;;;;;;2.47;1.80;;;-0.20;99.90;;;;;;1919365;73;25731;-92
2023/12/20 19:36:49;;;;;;;5.33;1.93;;;-0.20;99.90;;;;;;1934597;73;25816;-91
2023/12/20 19:42:56;;;;;;;1.13;1.00;;;-0.20;99.90;;;;;;2029905;69;26988;-91
2023/12/20 19:45:48;;;;;;;3.30;0.83;;;-0.30;99.90;;;;;;1985882;71;25220;-91
2023/12/20 19:52:49;;;;;;;35.03;8.90;;;-0.40;99.90;;;;;;1935708;73;31914;-92
2023/12/20 19:55:42;;;;;;;0.80;0.80;;;-0.40;99.90;;;;;;1928746;73;25296;-92
2023/12/20 19:58:31;;;;;;;0.80;0.60;;;-0.40;99.90;;;;;;1914991;73;25243;-91
2023/12/20 20:01:24;;;;;;;2.67;1.03;;;-0.50;99.90;;;;;;1938447;73;25216;-92
2023/12/20 20:07:09;;;;;;;1.17;1.00;;;-0.50;99.90;;;;;;1930252;73;27153;-92
2023/12/20 20:09:55;;;;;;;0.53;0.50;;;-0.50;99.90;;;;;;1899824;75;25255;-92
2023/12/20 20:12:46;;;;;;;0.50;0.50;;;-0.50;99.90;;;;;;1908541;74;25639;-92
2023/12/20 20:15:35;;;;;;;1.50;0.73;;;-0.50;99.90;;;;;;1887726;75;25219;-92
2023/12/20 20:18:25;;;;;;;0.83;0.60;;;-0.50;99.90;;;;;;1908711;75;25168;-92
2023/12/20 20:21:14;;;;;;;0.90;0.60;;;-0.50;99.90;;;;;;1899126;75;25183;-92
2023/12/20 20:24:05;;;;;;;0.80;0.80;;;-0.50;99.90;;;;;;1910192;75;25167;-92
2023/12/20 20:26:55;;;;;;;3.60;1.10;;;-0.50;99.90;;;;;;1914470;74;25238;-91
2023/12/20 20:32:28;;;;;;;2.60;1.27;;;-0.60;99.90;;;;;;1897841;74;27200;-91
2023/12/20 20:38:20;;;;;;;1.47;1.00;;;-0.50;99.90;;;;;;1951269;72;27005;-92
2023/12/20 20:41:10;;;;;;;1.10;0.83;;;-0.50;99.90;;;;;;1919310;73;25733;-92
2023/12/20 20:44:01;;;;;;;2.50;0.80;;;-0.50;99.90;;;;;;1946465;72;25290;-92
2023/12/20 20:46:51;;;;;;;0.90;0.67;;;-0.50;99.90;;;;;;1948549;72;25640;-91
2023/12/20 20:49:41;;;;;;;2.90;0.77;;;-0.60;99.90;;;;;;1943755;72;25240;-92
2023/12/20 20:56:59;;;;;;;4.43;1.17;;;-0.60;99.90;;;;;;2016131;70;27188;-92
2023/12/20 20:59:53;;;;;;;1.80;0.90;;;-0.60;99.90;;;;;;1925710;74;25683;-92
2023/12/20 21:02:44;;;;;;;1.13;0.87;;;-0.70;99.90;;;;;;1944701;73;25173;-91
2023/12/20 21:05:39;;;;;;;4.13;1.30;;;-0.70;99.90;;;;;;2002004;71;25227;-92
2023/12/20 21:08:35;;;;;;;1.57;0.93;;;-0.70;99.90;;;;;;1984106;71;25213;-92
2023/12/20 21:11:29;;;;;;;2.47;0.80;;;-0.70;99.90;;;;;;1995667;71;25229;-91
2023/12/20 21:17:36;;;;;;;0.50;0.50;;;-0.70;99.90;;;;;;1953950;72;28180;-92
2023/12/20 21:20:29;;;;;;;3.77;1.10;;;-0.70;99.90;;;;;;1917032;74;25613;-91
2023/12/20 21:23:26;;;;;;;1.10;1.00;;;-0.80;99.90;;;;;;1923546;73;25194;-91
2023/12/20 21:26:20;;;;;;;4.07;1.10;;;-0.80;99.90;;;;;;1928453;72;26288;-92
2023/12/20 21:32:57;;;;;;;1.80;1.00;;;-0.70;99.90;;;;;;1947406;72;27753;-92
2023/12/20 21:36:03;;;;;;;2.20;0.80;;;-0.70;99.90;;;;;;1924149;73;25249;-92
2023/12/20 21:38:52;;;;;;;1.63;0.97;;;-0.70;99.90;;;;;;1916409;73;25661;-92
2023/12/20 21:41:53;;;;;;;3.93;1.20;;;-0.70;99.90;;;;;;1916638;73;25206;-92
2023/12/20 21:44:52;;;;;;;1.30;1.00;;;-0.80;99.90;;;;;;1885623;74;25287;-92
2023/12/20 21:47:43;;;;;;;1.27;0.93;;;-0.80;99.90;;;;;;1891848;75;25756;-92
2023/12/20 21:56:10;;;;;;;4.83;1.17;;;-0.80;99.90;;;;;;1979580;71;27504;-92
2023/12/20 21:59:01;;;;;;;3.67;0.93;;;-0.60;99.90;;;;;;1953082;72;25272;-92
2023/12/20 22:05:49;;;;;;;4.40;1.10;;;-0.70;99.90;;;;;;2040583;69;25186;-92
2023/12/20 22:08:39;;;;;;;3.30;1.10;;;-0.70;99.90;;;;;;2039597;69;25126;-92
2023/12/20 22:11:31;;;;;;;1.50;1.00;;;-0.80;99.90;;;;;;1972003;72;25638;-92
2023/12/20 22:14:20;;;;;;;5.27;1.10;;;-0.80;99.90;;;;;;1952536;73;25775;-92
2023/12/20 22:17:10;;;;;;;2.03;1.00;;;-0.80;99.90;;;;;;1986409;71;25187;-92
2023/12/20 22:20:01;;;;;;;0.80;0.80;;;-0.90;99.90;;;;;;2048160;69;25559;-92
2023/12/20 22:22:51;;;;;;;1.07;0.73;;;-1.00;99.90;;;;;;2035167;69;25391;-92
2023/12/20 22:25:44;;;;;;;2.57;0.90;;;-1.10;99.90;;;;;;2044941;69;25282;-92
2023/12/20 22:32:48;;;;;;;1.97;1.20;;;-1.10;99.90;;;;;;1990135;71;27074;-92
2023/12/20 22:39:45;;;;;;;1.70;1.00;;;-1.00;99.90;;;;;;1994107;71;26310;-92
2023/12/20 22:42:35;;;;;;;1.90;1.10;;;-1.00;99.90;;;;;;1966987;71;25192;-91
2023/12/20 22:45:32;;;;;;;4.80;1.07;;;-1.10;99.90;;;;;;2003288;69;25202;-91
2023/12/20 22:48:21;;;;;;;2.10;1.23;;;-1.10;99.90;;;;;;2047797;69;25200;-91
2023/12/20 22:51:12;;;;;;;3.43;0.97;;;-1.20;99.90;;;;;;2016410;69;25156;-91
2023/12/20 22:54:03;;;;;;;2.70;1.20;;;-1.20;99.90;;;;;;1947226;72;25224;-91
2023/12/20 22:56:55;;;;;;;1.23;1.00;;;-1.20;99.90;;;;;;2018668;69;25560;-91
2023/12/20 22:59:46;;;;;;;4.13;1.20;;;-1.20;99.90;;;;;;2040494;69;25208;-91
2023/12/20 23:02:36;;;;;;;2.10;0.90;;;-1.20;99.90;;;;;;2033008;69;25158;-91
2023/12/20 23:05:26;;;;;;;8.60;1.40;;;-1.20;99.90;;;;;;2021323;69;25284;-91
2023/12/20 23:08:16;;;;;;;3.20;0.97;;;-1.20;99.90;;;;;;2021003;69;25652;-91
2023/12/20 23:11:07;;;;;;;4.33;1.20;;;-1.30;99.90;;;;;;2021402;69;25179;-91
2023/12/20 23:16:52;;;;;;;2.30;1.03;;;-1.20;99.90;;;;;;1976643;71;27444;-92
2023/12/20 23:19:50;;;;;;;4.07;1.10;;;-1.30;99.90;;;;;;1918207;73;25217;-92
2023/12/20 23:22:39;;;;;;;1.50;1.23;;;-1.20;99.90;;;;;;1924221;73;25263;-92
2023/12/20 23:25:29;;;;;;;3.77;1.17;;;-1.20;99.90;;;;;;1921348;72;25821;-93
2023/12/20 23:47:12;;;;;;;2.37;1.37;;;-1.30;99.90;;;;;;1936893;72;27085;-91
2023/12/20 23:50:02;;;;;;;2.07;1.10;;;-1.20;99.90;;;;;;1900293;75;25213;-91
2023/12/20 23:52:50;;;;;;;3.60;1.13;;;-1.40;99.90;;;;;;1891177;75;25254;-93
2023/12/20 23:55:40;;;;;;;3.37;1.40;;;-1.50;99.90;;;;;;1903131;75;25166;-93
